Time;durP1;ratioP1;P1;durP2;ratioP2;P2;SDS_P1;SDS_P2;PMS_P1;PMS_P2;Temp;Humidity;BMP_temperature;BMP_pressure;BME280_temperature;BME280_humidity;BME280_pressure;Samples;Min_cycle;Max_cycle;Signal;HPM_P1;HPM_P2
2021/09/10 00:00:35;;;;;;;13.48;11.63;;;;;;;20.75;100.00;96239.31;5074589;28;20130;-56
2021/09/10 00:03:04;;;;;;;14.50;11.80;;;;;;;21.07;100.00;96242.84;5085378;28;20075;-52
2021/09/10 00:05:34;;;;;;;14.80;11.98;;;;;;;21.17;100.00;96245.06;5087511;28;20093;-52
2021/09/10 00:08:03;;;;;;;14.65;11.60;;;;;;;21.16;100.00;96254.94;5073563;28;20071;-56
2021/09/10 00:10:31;;;;;;;15.30;11.95;;;;;;;21.20;100.00;96250.81;5079189;28;20075;-57
2021/09/10 00:13:00;;;;;;;14.68;11.93;;;;;;;21.13;100.00;96257.25;5080921;28;20088;-54
2021/09/10 00:15:29;;;;;;;16.42;12.43;;;;;;;21.17;100.00;96255.78;5075855;28;20067;-57
2021/09/10 00:17:57;;;;;;;14.38;11.85;;;;;;;21.20;100.00;96258.06;5072535;28;20067;-56
2021/09/10 00:20:26;;;;;;;16.38;12.07;;;;;;;21.30;100.00;96264.56;5076570;28;20090;-54
2021/09/10 00:22:55;;;;;;;16.50;12.02;;;;;;;20.70;100.00;96263.25;5080310;28;20070;-57
2021/09/10 00:25:24;;;;;;;14.95;12.00;;;;;;;20.85;100.00;96266.47;5079317;28;20076;-56
2021/09/10 00:27:52;;;;;;;13.80;12.07;;;;;;;20.70;100.00;96258.72;5081511;28;20443;-57
2021/09/10 00:30:21;;;;;;;17.13;12.52;;;;;;;20.68;100.00;96257.28;5081120;28;20075;-55
2021/09/10 00:32:49;;;;;;;17.58;12.88;;;;;;;20.57;100.00;96256.91;5083500;28;20079;-52
2021/09/10 00:35:18;;;;;;;13.48;11.90;;;;;;;20.49;100.00;96253.63;5070522;28;20079;-58
2021/09/10 00:37:46;;;;;;;14.63;12.55;;;;;;;20.82;100.00;96251.66;5076532;28;20076;-57
2021/09/10 00:40:16;;;;;;;15.07;12.10;;;;;;;20.74;100.00;96251.06;5094429;28;20074;-54
2021/09/10 00:42:44;;;;;;;14.57;12.00;;;;;;;21.08;100.00;96247.19;5075931;28;20064;-53
2021/09/10 00:45:13;;;;;;;13.85;11.98;;;;;;;21.14;100.00;96251.69;5081058;28;20068;-55
2021/09/10 00:47:42;;;;;;;14.38;12.52;;;;;;;21.04;100.00;96251.34;5090042;28;20462;-57
2021/09/10 00:50:11;;;;;;;14.77;11.75;;;;;;;21.09;100.00;96255.03;5083240;28;20079;-52
2021/09/10 00:52:39;;;;;;;14.23;12.30;;;;;;;21.01;100.00;96255.25;5076654;28;20070;-53
2021/09/10 00:55:08;;;;;;;16.05;12.32;;;;;;;21.12;100.00;96260.97;5082925;28;20063;-54
2021/09/10 00:57:38;;;;;;;14.27;12.43;;;;;;;21.16;100.00;96254.13;5082508;28;20067;-54
2021/09/10 01:00:07;;;;;;;14.40;12.45;;;;;;;20.98;100.00;96265.59;5075671;28;20060;-54
2021/09/10 01:02:36;;;;;;;15.95;12.85;;;;;;;20.96;100.00;96262.31;5087597;28;20529;-52
2021/09/10 01:05:05;;;;;;;16.33;12.85;;;;;;;20.88;100.00;96263.38;5091197;28;20116;-54
2021/09/10 01:07:34;;;;;;;15.77;12.38;;;;;;;20.99;100.00;96256.50;5081469;28;20114;-50
2021/09/10 01:10:03;;;;;;;16.45;12.68;;;;;;;21.01;100.00;96260.63;5088523;28;20064;-54
2021/09/10 01:12:31;;;;;;;13.82;11.50;;;;;;;21.00;100.00;96266.22;5090339;28;20434;-55
2021/09/10 01:15:02;;;;;;;15.00;12.65;;;;;;;20.99;100.00;96267.22;5063744;28;20084;-51
2021/09/10 01:17:30;;;;;;;15.27;12.30;;;;;;;20.90;100.00;96260.50;5061328;28;20536;-54
2021/09/10 01:19:58;;;;;;;14.68;12.10;;;;;;;20.83;100.00;96260.53;5081352;28;20098;-57
2021/09/10 01:22:27;;;;;;;14.77;12.10;;;;;;;20.53;100.00;96263.72;5090982;28;20083;-54
2021/09/10 01:25:12;;;;;;;16.00;13.05;;;;;;;20.26;100.00;96265.63;5077330;28;20470;-54
2021/09/10 01:27:42;;;;;;;15.38;12.80;;;;;;;20.06;100.00;96265.72;5085070;28;20039;-57
2021/09/10 01:30:12;;;;;;;15.20;12.93;;;;;;;20.09;100.00;96270.63;5087614;28;20067;-56
2021/09/10 01:32:40;;;;;;;15.57;12.90;;;;;;;20.28;100.00;96260.91;5067733;28;20052;-52
2021/09/10 01:35:09;;;;;;;15.43;12.32;;;;;;;20.18;100.00;96265.88;5081997;28;20423;-53
2021/09/10 01:37:38;;;;;;;17.13;12.57;;;;;;;20.35;100.00;96267.06;5079749;28;20062;-54
2021/09/10 01:40:10;;;;;;;16.15;12.90;;;;;;;20.37;100.00;96266.84;5066863;28;20072;-56
2021/09/10 01:42:39;;;;;;;16.65;13.75;;;;;;;20.23;100.00;96267.91;5088588;28;20064;-53
2021/09/10 01:45:09;;;;;;;16.13;13.75;;;;;;;20.06;100.00;96271.06;5079843;28;20771;-55
2021/09/10 01:47:38;;;;;;;14.48;12.63;;;;;;;20.20;100.00;96274.53;5085360;28;20518;-56
2021/09/10 01:50:10;;;;;;;14.45;12.38;;;;;;;20.37;100.00;96273.03;5088164;28;20584;-52
2021/09/10 01:52:38;;;;;;;15.68;12.90;;;;;;;20.52;100.00;96280.03;5088519;28;20076;-51
2021/09/10 01:55:11;;;;;;;20.20;13.45;;;;;;;20.50;100.00;96274.00;5087270;28;20080;-56
2021/09/10 01:57:40;;;;;;;15.93;13.18;;;;;;;20.58;100.00;96269.28;5089363;28;20064;-51
2021/09/10 02:00:09;;;;;;;16.73;13.48;;;;;;;20.61;100.00;96265.34;5093654;28;20071;-54
2021/09/10 02:02:38;;;;;;;17.02;13.30;;;;;;;20.53;100.00;96263.72;5080478;28;20071;-50
2021/09/10 02:05:08;;;;;;;17.10;12.68;;;;;;;20.61;100.00;96268.88;5085039;28;20067;-54
2021/09/10 02:07:37;;;;;;;16.37;13.23;;;;;;;20.58;100.00;96266.63;5090661;28;20072;-57
2021/09/10 02:10:09;;;;;;;15.30;13.27;;;;;;;20.55;100.00;96272.38;5091697;28;20493;-53
2021/09/10 02:12:38;;;;;;;16.23;12.68;;;;;;;20.24;100.00;96280.28;5081548;28;20068;-53
2021/09/10 02:15:11;;;;;;;15.70;12.95;;;;;;;19.77;100.00;96285.69;5086680;28;20070;-52
2021/09/10 02:17:39;;;;;;;19.52;12.77;;;;;;;20.13;100.00;96282.56;5088438;28;20072;-56
2021/09/10 02:20:10;;;;;;;18.05;13.55;;;;;;;20.19;100.00;96288.94;5084797;28;20067;-53
2021/09/10 02:22:39;;;;;;;18.05;13.65;;;;;;;20.41;100.00;96281.47;5067346;28;20076;-53
2021/09/10 02:25:09;;;;;;;16.90;13.23;;;;;;;20.44;100.00;96290.94;5090785;28;20091;-55
2021/09/10 02:27:38;;;;;;;13.80;12.07;;;;;;;20.48;100.00;96286.81;5079439;28;20058;-52
2021/09/10 02:30:07;;;;;;;14.40;12.90;;;;;;;20.54;100.00;96280.63;5080430;28;20071;-50
2021/09/10 02:32:36;;;;;;;22.90;13.85;;;;;;;20.42;100.00;96280.44;5080277;28;20458;-53
2021/09/10 02:35:06;;;;;;;14.95;13.13;;;;;;;20.25;100.00;96287.28;5096977;28;20067;-53
2021/09/10 02:37:34;;;;;;;19.30;13.83;;;;;;;20.41;100.00;96286.03;5087352;28;20090;-55
2021/09/10 02:40:03;;;;;;;17.65;13.98;;;;;;;20.58;100.00;96281.88;5083383;28;20032;-55
2021/09/10 02:42:33;;;;;;;14.93;13.30;;;;;;;20.71;100.00;96284.47;5087787;28;20431;-56
2021/09/10 02:45:02;;;;;;;17.00;13.57;;;;;;;20.73;100.00;96281.59;5095621;28;20071;-54
2021/09/10 02:47:31;;;;;;;15.90;13.43;;;;;;;20.92;100.00;96282.53;5081907;28;20543;-55
2021/09/10 02:49:59;;;;;;;19.65;14.20;;;;;;;20.90;100.00;96279.25;5090264;28;20473;-56
2021/09/10 02:52:28;;;;;;;16.73;13.38;;;;;;;20.98;100.00;96281.69;5084268;28;20067;-55
2021/09/10 02:54:56;;;;;;;15.38;13.50;;;;;;;21.22;100.00;96277.41;5092953;28;20079;-56
2021/09/10 02:57:25;;;;;;;18.05;13.68;;;;;;;21.22;100.00;96280.09;5076581;28;20506;-55
2021/09/10 02:59:55;;;;;;;17.77;13.68;;;;;;;21.07;100.00;96275.84;5097342;28;20068;-53
2021/09/10 03:02:23;;;;;;;19.20;13.27;;;;;;;21.33;100.00;96268.66;5088478;28;20067;-55
2021/09/10 03:04:52;;;;;;;16.67;13.35;;;;;;;21.36;100.00;96273.63;5077480;28;20071;-55
2021/09/10 03:07:20;;;;;;;18.52;13.82;;;;;;;21.07;100.00;96273.16;5086033;28;20443;-49
2021/09/10 03:09:49;;;;;;;20.77;13.93;;;;;;;21.34;100.00;96267.69;5069706;28;20071;-56
2021/09/10 03:12:17;;;;;;;19.00;13.75;;;;;;;20.89;100.00;96274.91;5083554;28;20536;-49
2021/09/10 03:14:45;;;;;;;17.25;13.85;;;;;;;21.15;100.00;96268.59;5077853;28;20557;-56
2021/09/10 03:17:15;;;;;;;16.75;13.10;;;;;;;20.63;100.00;96268.66;5100760;28;20060;-53
2021/09/10 03:19:44;;;;;;;16.58;13.13;;;;;;;20.82;100.00;96265.06;5092542;28;20177;-54
2021/09/10 03:22:12;;;;;;;16.55;13.43;;;;;;;20.89;100.00;96267.72;5084080;28;20430;-56
2021/09/10 03:24:41;;;;;;;16.83;13.13;;;;;;;20.97;100.00;96266.63;5085783;28;20079;-51
2021/09/10 03:27:09;;;;;;;16.77;14.25;;;;;;;20.79;100.00;96259.31;5094918;28;20063;-55
2021/09/10 03:29:38;;;;;;;15.50;12.93;;;;;;;20.78;100.00;96255.78;5089969;28;20557;-57
2021/09/10 03:32:07;;;;;;;16.50;13.88;;;;;;;20.54;100.00;96253.84;5089026;28;20075;-56
2021/09/10 03:34:36;;;;;;;15.35;13.65;;;;;;;20.52;100.00;96256.75;5081667;28;20079;-54
2021/09/10 03:37:05;;;;;;;15.93;12.85;;;;;;;20.72;100.00;96253.16;5089034;28;20075;-56
2021/09/10 03:39:34;;;;;;;16.75;13.25;;;;;;;20.71;100.00;96255.00;5078638;28;20556;-55
2021/09/10 03:42:02;;;;;;;15.88;12.77;;;;;;;20.73;100.00;96255.63;5089309;28;20064;-54
2021/09/10 03:44:31;;;;;;;16.60;13.80;;;;;;;20.73;100.00;96252.94;5091272;28;20476;-56
2021/09/10 03:46:59;;;;;;;16.02;13.52;;;;;;;20.55;100.00;96256.31;5082798;28;20074;-51
2021/09/10 03:49:27;;;;;;;18.60;13.57;;;;;;;20.59;100.00;96259.41;5085331;28;20355;-52
2021/09/10 03:51:57;;;;;;;17.17;13.70;;;;;;;20.23;100.00;96255.34;5086340;28;20533;-56
2021/09/10 03:54:26;;;;;;;18.13;14.23;;;;;;;20.26;100.00;96252.25;5086373;28;20075;-54
2021/09/10 03:56:54;;;;;;;20.38;13.73;;;;;;;20.33;100.00;96236.97;5078817;28;20052;-55
2021/09/10 03:59:23;;;;;;;20.63;14.48;;;;;;;20.20;100.00;96238.88;5093055;28;20415;-52
2021/09/10 04:01:51;;;;;;;17.67;14.45;;;;;;;20.09;100.00;96249.19;5078352;28;20086;-53
2021/09/10 04:04:20;;;;;;;20.00;14.77;;;;;;;19.95;100.00;96238.75;5082602;28;20075;-54
2021/09/10 04:06:49;;;;;;;17.45;14.32;;;;;;;19.44;100.00;96249.06;5082518;28;20043;-53
2021/09/10 04:09:19;;;;;;;17.27;14.25;;;;;;;19.83;100.00;96230.53;5100579;28;20086;-52
2021/09/10 04:11:47;;;;;;;18.42;14.70;;;;;;;20.08;100.00;96244.06;5080047;28;20055;-52
2021/09/10 04:14:16;;;;;;;17.20;14.10;;;;;;;20.13;100.00;96236.22;5067882;28;20090;-52
2021/09/10 04:16:44;;;;;;;16.77;13.55;;;;;;;20.08;100.00;96239.53;5072249;28;20052;-55
2021/09/10 04:19:12;;;;;;;13.82;12.32;;;;;;;19.83;100.00;96231.34;5087725;28;20075;-53
2021/09/10 04:21:41;;;;;;;18.10;14.50;;;;;;;19.53;100.00;96246.16;5087013;28;20153;-53
2021/09/10 04:24:09;;;;;;;14.82;13.05;;;;;;;19.75;100.00;96244.09;5080962;28;20060;-49
2021/09/10 04:26:39;;;;;;;16.88;14.20;;;;;;;19.27;100.00;96246.97;5090538;28;20086;-53
2021/09/10 04:29:07;;;;;;;17.75;14.80;;;;;;;19.78;100.00;96246.38;5064541;28;20071;-53
2021/09/10 04:31:36;;;;;;;18.80;14.38;;;;;;;19.52;100.00;96250.69;5075976;28;20080;-54
2021/09/10 04:34:04;;;;;;;17.20;13.63;;;;;;;19.01;100.00;96255.78;5101986;28;20076;-52
2021/09/10 04:36:33;;;;;;;17.95;13.57;;;;;;;19.34;100.00;96256.66;5083277;28;20064;-53
2021/09/10 04:39:01;;;;;;;16.20;14.30;;;;;;;19.48;100.00;96253.97;5080239;28;20067;-52
2021/09/10 04:41:30;;;;;;;20.83;13.90;;;;;;;19.63;100.00;96251.94;5085713;28;20068;-56
2021/09/10 04:44:00;;;;;;;18.98;13.00;;;;;;;19.64;100.00;96258.94;5084810;28;20058;-52
2021/09/10 04:46:29;;;;;;;16.10;12.80;;;;;;;19.71;100.00;96257.09;5081786;28;20047;-56
2021/09/10 04:48:57;;;;;;;15.15;12.80;;;;;;;19.40;100.00;96263.84;5078701;28;20082;-51
2021/09/10 04:51:28;;;;;;;20.58;12.88;;;;;;;19.02;100.00;96265.44;5090397;28;20071;-52
2021/09/10 04:53:57;;;;;;;17.30;13.98;;;;;;;18.83;100.00;96267.03;5069455;28;20063;-50
2021/09/10 04:56:26;;;;;;;19.00;13.77;;;;;;;18.71;100.00;96267.59;5077256;28;20082;-53
2021/09/10 04:58:54;;;;;;;21.83;13.77;;;;;;;18.93;100.00;96268.31;5089771;28;20450;-54
2021/09/10 05:01:24;;;;;;;19.38;14.55;;;;;;;18.46;100.00;96259.25;5069530;28;20664;-50
2021/09/10 05:03:53;;;;;;;20.30;14.50;;;;;;;18.37;100.00;96260.44;5081845;28;20087;-51
2021/09/10 05:06:22;;;;;;;19.40;15.32;;;;;;;18.05;100.00;96259.25;5085042;28;20135;-51
2021/09/10 05:08:50;;;;;;;19.08;15.52;;;;;;;17.57;100.00;96259.09;5082395;28;20051;-54
2021/09/10 05:11:37;;;;;;;20.05;14.50;;;;;;;18.09;100.00;96263.19;5088940;28;20672;-54
2021/09/10 05:14:06;;;;;;;18.85;15.50;;;;;;;18.34;100.00;96265.34;5085829;28;20072;-48
2021/09/10 05:16:35;;;;;;;17.50;14.73;;;;;;;18.81;100.00;96258.41;5082343;28;20088;-55
2021/09/10 05:19:04;;;;;;;16.75;14.73;;;;;;;19.34;100.00;96259.31;5092547;28;20080;-58
2021/09/10 05:21:32;;;;;;;17.15;14.18;;;;;;;19.30;100.00;96259.91;5086917;28;20074;-57
2021/09/10 05:24:01;;;;;;;17.65;14.02;;;;;;;19.40;100.00;96260.34;5089310;28;20107;-52
2021/09/10 05:26:29;;;;;;;19.55;13.82;;;;;;;19.28;100.00;96262.00;5095117;28;20513;-54
2021/09/10 05:28:57;;;;;;;15.95;13.68;;;;;;;19.16;100.00;96267.91;5086536;28;20714;-53
2021/09/10 05:31:26;;;;;;;15.88;12.85;;;;;;;19.16;100.00;96265.25;5081558;28;20095;-54
2021/09/10 05:33:56;;;;;;;16.33;13.90;;;;;;;20.04;100.00;96262.41;5082498;28;20131;-58
2021/09/10 05:36:25;;;;;;;16.48;13.90;;;;;;;19.87;100.00;96274.56;5080114;28;20067;-53
2021/09/10 05:38:53;;;;;;;16.50;14.25;;;;;;;20.23;100.00;96282.13;5086164;28;20068;-55
2021/09/10 05:41:21;;;;;;;18.05;13.52;;;;;;;20.48;100.00;96278.78;5099773;28;20071;-54
2021/09/10 05:43:50;;;;;;;16.55;13.57;;;;;;;20.45;100.00;96277.34;5079311;28;20040;-57
2021/09/10 05:46:18;;;;;;;18.05;15.02;;;;;;;20.35;100.00;96277.78;5071960;28;20068;-52
2021/09/10 05:48:48;;;;;;;23.88;14.35;;;;;;;20.74;100.00;96278.69;5098719;28;21370;-55
2021/09/10 05:51:18;;;;;;;18.40;14.35;;;;;;;21.06;100.00;96276.91;5090139;28;20070;-58
2021/09/10 05:53:46;;;;;;;18.02;14.18;;;;;;;21.09;100.00;96276.47;5081072;28;20067;-56
2021/09/10 05:56:14;;;;;;;16.08;13.05;;;;;;;21.28;100.00;96276.56;5089315;28;20059;-56
2021/09/10 05:58:43;;;;;;;17.15;13.40;;;;;;;21.31;100.00;96276.94;5060751;28;20056;-55
2021/09/10 06:01:11;;;;;;;14.20;12.57;;;;;;;21.73;100.00;96281.81;5086697;28;20501;-55
2021/09/10 06:03:40;;;;;;;17.60;13.82;;;;;;;21.53;100.00;96282.78;5097095;28;20075;-54
2021/09/10 06:06:09;;;;;;;14.77;13.07;;;;;;;21.17;100.00;96290.66;5085361;28;20071;-56
2021/09/10 06:08:39;;;;;;;16.23;13.07;;;;;;;20.95;100.00;96282.91;5083449;28;20074;-53
2021/09/10 06:11:08;;;;;;;15.55;12.60;;;;;;;21.27;100.00;96288.34;5084311;28;20067;-55
2021/09/10 06:13:36;;;;;;;13.55;12.15;;;;;;;21.94;100.00;96286.78;5081140;28;20072;-52
2021/09/10 06:16:23;;;;;;;13.60;11.68;;;;;;;22.05;100.00;96291.44;5091386;28;20173;-55
2021/09/10 06:18:52;;;;;;;13.57;11.95;;;;;;;21.94;100.00;96291.34;5086841;28;20430;-56
2021/09/10 06:21:21;;;;;;;13.05;11.30;;;;;;;22.39;100.00;96283.91;5090123;28;20060;-55
2021/09/10 06:23:51;;;;;;;15.20;12.43;;;;;;;22.57;100.00;96288.44;5092265;28;20067;-53
2021/09/10 06:26:22;;;;;;;14.20;12.38;;;;;;;22.37;100.00;96294.06;5074829;28;20086;-52
2021/09/10 06:28:51;;;;;;;19.55;12.00;;;;;;;22.81;100.00;96296.66;5087516;28;20064;-53
2021/09/10 06:31:19;;;;;;;14.30;12.52;;;;;;;22.63;100.00;96292.13;5098557;28;20066;-50
2021/09/10 06:33:48;;;;;;;16.10;12.80;;;;;;;23.13;100.00;96284.69;5096344;28;20063;-53
2021/09/10 06:36:16;;;;;;;14.63;12.45;;;;;;;23.12;100.00;96291.09;5084006;28;20060;-58
2021/09/10 06:38:50;;;;;;;13.95;12.18;;;;;;;23.82;100.00;96284.31;5087760;28;20060;-53
2021/09/10 06:41:19;;;;;;;13.57;12.15;;;;;;;24.24;100.00;96284.19;5079320;28;20068;-54
2021/09/10 06:43:47;;;;;;;15.07;12.57;;;;;;;23.22;100.00;96288.69;5086464;28;20055;-50
2021/09/10 06:46:16;;;;;;;13.70;12.23;;;;;;;23.86;100.00;96288.19;5078690;28;20086;-57
2021/09/10 06:48:44;;;;;;;15.35;13.05;;;;;;;23.56;100.00;96289.03;5093293;28;20079;-56
2021/09/10 06:51:13;;;;;;;13.75;11.50;;;;;;;23.80;100.00;96289.09;5068777;28;20071;-53
2021/09/10 06:53:41;;;;;;;15.48;12.02;;;;;;;23.89;100.00;96288.53;5059821;28;20052;-51
2021/09/10 06:56:11;;;;;;;17.05;11.90;;;;;;;24.51;100.00;96295.34;5088363;28;20446;-56
2021/09/10 06:58:39;;;;;;;16.63;12.30;;;;;;;24.50;100.00;96282.91;5091647;28;20078;-55
2021/09/10 07:01:08;;;;;;;15.40;11.50;;;;;;;24.22;100.00;96297.91;5089286;28;20079;-56
2021/09/10 07:03:36;;;;;;;15.10;11.40;;;;;;;23.10;100.00;96295.91;5080655;28;20504;-53
2021/09/10 07:06:07;;;;;;;13.35;11.25;;;;;;;22.83;100.00;96297.25;5090146;28;20071;-55
2021/09/10 07:08:35;;;;;;;16.40;11.18;;;;;;;23.14;100.00;96291.72;5083628;28;20067;-55
2021/09/10 07:11:04;;;;;;;12.25;10.82;;;;;;;23.61;100.00;96289.16;5084320;28;20066;-57
2021/09/10 07:13:34;;;;;;;14.10;11.15;;;;;;;23.49;100.00;96291.00;5082312;28;20076;-55
2021/09/10 07:16:03;;;;;;;14.73;11.05;;;;;;;23.95;100.00;96299.41;5104522;28;20083;-55
2021/09/10 07:18:32;;;;;;;15.38;11.18;;;;;;;24.64;100.00;96303.19;5085825;28;20074;-53
2021/09/10 07:21:02;;;;;;;14.50;11.00;;;;;;;24.82;100.00;96296.81;5081386;28;20074;-53
2021/09/10 07:23:32;;;;;;;;;;;;;;;25.39;98.53;96304.13;5084862;28;20513;-56
2021/09/10 07:26:03;;;;;;;14.20;10.68;;;;;;;24.61;100.00;96307.16;5080370;28;19951;-54
2021/09/10 07:28:32;;;;;;;15.00;10.82;;;;;;;24.46;100.00;96312.22;5065230;28;20075;-53
2021/09/10 07:31:04;;;;;;;15.35;10.65;;;;;;;25.61;95.65;96309.66;5092420;28;20059;-54
2021/09/10 07:33:35;;;;;;;12.52;10.15;;;;;;;26.03;90.39;96308.22;5093891;28;20446;-55
2021/09/10 07:36:05;;;;;;;12.88;10.55;;;;;;;26.02;87.29;96308.50;5071579;28;20505;-57
2021/09/10 07:38:35;;;;;;;14.65;10.13;;;;;;;26.08;86.45;96310.19;5077196;28;20514;-57
2021/09/10 07:41:05;;;;;;;13.50;10.43;;;;;;;25.87;87.45;96305.53;5087884;28;20726;-52
2021/09/10 07:43:34;;;;;;;12.55;10.00;;;;;;;25.66;87.12;96310.56;5081281;28;20090;-53
2021/09/10 07:46:05;;;;;;;12.07;10.15;;;;;;;26.00;84.51;96308.72;5079170;28;20075;-52
2021/09/10 07:48:33;;;;;;;11.95;9.68;;;;;;;26.66;77.36;96305.38;5090109;28;20063;-53
2021/09/10 07:51:02;;;;;;;12.32;10.63;;;;;;;26.06;80.52;96311.53;5090777;28;20062;-54
2021/09/10 07:53:30;;;;;;;14.55;10.05;;;;;;;26.99;75.29;96312.56;5079919;28;20077;-57
2021/09/10 07:55:59;;;;;;;11.02;9.77;;;;;;;27.18;70.37;96311.19;5079889;28;20068;-53
2021/09/10 07:58:27;;;;;;;15.57;10.63;;;;;;;27.10;76.53;96311.59;5093148;28;20076;-54
2021/09/10 08:00:56;;;;;;;11.48;9.55;;;;;;;26.70;80.27;96315.47;5091563;28;20076;-54
2021/09/10 08:03:27;;;;;;;12.32;9.88;;;;;;;27.05;76.15;96316.13;5070930;28;20162;-54
2021/09/10 08:05:57;;;;;;;12.55;9.73;;;;;;;27.29;71.88;96314.00;5076440;28;20052;-57
2021/09/10 08:08:25;;;;;;;11.60;9.00;;;;;;;26.84;69.89;96315.91;5086498;28;20078;-57
2021/09/10 08:10:54;;;;;;;10.68;9.50;;;;;;;26.44;75.20;96314.25;5082186;28;20066;-54
2021/09/10 08:13:22;;;;;;;12.30;9.90;;;;;;;27.28;66.87;96312.38;5077227;28;20087;-56
2021/09/10 08:15:50;;;;;;;11.95;8.85;;;;;;;27.52;68.12;96316.41;5094603;28;20082;-54
2021/09/10 08:18:19;;;;;;;14.10;9.07;;;;;;;27.82;63.46;96324.06;5084044;28;20098;-56
2021/09/10 08:20:49;;;;;;;12.65;8.80;;;;;;;28.17;62.25;96318.09;5087958;28;20059;-52
2021/09/10 08:23:22;;;;;;;11.02;9.25;;;;;;;27.31;73.95;96320.00;5084302;28;20518;-56
2021/09/10 08:25:51;;;;;;;11.32;8.77;;;;;;;26.87;68.10;96318.09;5090015;28;20522;-55
2021/09/10 08:28:22;;;;;;;10.93;8.18;;;;;;;27.50;70.91;96323.19;5079504;28;20087;-56
2021/09/10 08:30:50;;;;;;;13.70;8.90;;;;;;;27.82;66.36;96317.81;5088535;28;20098;-54
2021/09/10 08:33:19;;;;;;;12.40;8.07;;;;;;;27.98;61.10;96319.59;5087094;28;20076;-58
2021/09/10 08:35:49;;;;;;;10.35;8.20;;;;;;;27.30;62.80;96330.00;5081714;28;20068;-56
2021/09/10 08:38:18;;;;;;;12.32;8.15;;;;;;;27.83;60.18;96327.56;5077243;28;20588;-58
2021/09/10 08:40:47;;;;;;;9.32;7.60;;;;;;;27.27;60.78;96332.41;5091279;28;20072;-58
2021/09/10 08:43:15;;;;;;;9.55;8.10;;;;;;;27.37;61.25;96336.03;5087901;28;20087;-57
2021/09/10 08:45:44;;;;;;;9.95;8.55;;;;;;;27.06;62.59;96332.13;5078118;28;20070;-53
2021/09/10 08:48:12;;;;;;;9.68;7.57;;;;;;;26.31;65.10;96336.22;5083339;28;20082;-56
2021/09/10 08:50:41;;;;;;;10.32;7.78;;;;;;;26.48;63.47;96345.16;5084653;28;20076;-56
2021/09/10 08:53:11;;;;;;;9.95;7.47;;;;;;;27.65;59.17;96339.56;5086808;28;20086;-55
2021/09/10 08:55:40;;;;;;;9.57;8.52;;;;;;;27.45;59.96;96337.47;5080349;28;20084;-56
2021/09/10 08:58:09;;;;;;;11.68;7.68;;;;;;;27.66;55.56;96344.72;5083502;28;20099;-51
2021/09/10 09:00:40;;;;;;;9.05;8.13;;;;;;;27.85;55.18;96341.69;5084946;28;20071;-53
2021/09/10 09:03:11;;;;;;;9.55;7.60;;;;;;;27.81;55.10;96346.00;5085091;28;20086;-56
2021/09/10 09:05:40;;;;;;;9.25;7.97;;;;;;;28.64;52.74;96343.69;5085345;28;20075;-53
2021/09/10 09:08:12;;;;;;;9.45;7.15;;;;;;;28.10;56.28;96341.91;5083000;28;20094;-55
2021/09/10 09:11:02;;;;;;;;;;;;;;;28.70;52.51;96339.91;5091545;28;20528;-53
2021/09/10 09:13:32;;;;;;;9.45;7.22;;;;;;;29.24;51.14;96333.38;5079618;28;19955;-57
2021/09/10 09:16:22;;;;;;;8.70;7.20;;;;;;;29.16;52.33;96331.19;5088474;28;20075;-57
2021/09/10 09:18:52;;;;;;;9.07;8.07;;;;;;;29.10;50.67;96331.16;5093371;28;21391;-55
2021/09/10 09:21:21;;;;;;;;;;;;;;;29.91;47.69;96329.75;5076325;28;20480;-56
2021/09/10 09:23:56;;;;;;;8.18;7.28;;;;;;;28.80;50.53;96325.56;5073059;28;19952;-55
2021/09/10 09:26:26;;;;;;;10.25;7.72;;;;;;;29.10;52.65;96328.44;5088620;28;20041;-56
2021/09/10 09:29:03;;;;;;;9.23;7.60;;;;;;;29.20;51.44;96329.56;5088731;28;20070;-57
2021/09/10 09:31:32;;;;;;;8.90;7.93;;;;;;;28.89;52.62;96328.59;5079030;28;20091;-53
2021/09/10 09:34:00;;;;;;;8.52;7.43;;;;;;;29.12;51.85;96333.63;5087864;28;20079;-56
2021/09/10 09:36:29;;;;;;;10.50;7.93;;;;;;;28.93;49.82;96329.72;5087474;28;20066;-55
2021/09/10 09:38:59;;;;;;;10.50;8.25;;;;;;;29.54;48.09;96328.03;5088854;28;20533;-57
2021/09/10 09:41:28;;;;;;;10.13;8.05;;;;;;;29.63;48.02;96330.25;5084980;28;20075;-55
2021/09/10 09:44:08;;;;;;;8.82;7.40;;;;;;;29.47;53.07;96326.66;5082430;28;20068;-56
2021/09/10 09:46:37;;;;;;;8.65;7.60;;;;;;;29.37;52.47;96326.66;5089562;28;20068;-53
2021/09/10 09:49:09;;;;;;;9.35;7.72;;;;;;;28.74;52.66;96337.50;5085371;28;20086;-55
2021/09/10 09:51:39;;;;;;;9.50;7.28;;;;;;;29.32;50.88;96322.84;5085204;28;20409;-54
2021/09/10 09:54:09;;;;;;;9.70;7.47;;;;;;;28.97;50.81;96322.66;5083016;28;20064;-54
2021/09/10 09:56:38;;;;;;;9.15;6.97;;;;;;;29.35;53.98;96318.75;5095611;28;20072;-54
2021/09/10 09:59:06;;;;;;;10.18;7.90;;;;;;;29.49;49.11;96321.75;5085781;28;20071;-56
2021/09/10 10:01:35;;;;;;;9.25;7.30;;;;;;;29.77;47.26;96317.78;5085495;28;20098;-57
2021/09/10 10:04:04;;;;;;;10.52;7.45;;;;;;;29.86;48.28;96313.44;5088519;28;20087;-51
2021/09/10 10:06:33;;;;;;;10.77;7.78;;;;;;;30.04;46.41;96322.94;5077196;28;20064;-55
2021/09/10 10:09:04;;;;;;;8.90;6.80;;;;;;;30.24;45.60;96322.16;5085047;28;20150;-56
2021/09/10 10:11:40;;;;;;;8.02;6.95;;;;;;;30.46;47.03;96316.44;5092708;28;20060;-55
2021/09/10 10:14:08;;;;;;;11.73;7.13;;;;;;;30.13;47.81;96315.06;5083238;28;20067;-52
2021/09/10 10:16:39;;;;;;;10.07;7.35;;;;;;;29.89;47.28;96317.53;5078796;28;20099;-52
2021/09/10 10:19:09;;;;;;;10.98;7.75;;;;;;;30.08;46.03;96321.34;5085738;28;20099;-54
2021/09/10 10:21:50;;;;;;;10.15;7.70;;;;;;;30.46;47.25;96314.53;5098891;28;20075;-56
2021/09/10 10:24:40;;;;;;;9.75;7.47;;;;;;;30.72;48.23;96315.25;5083604;28;20071;-55
2021/09/10 10:27:30;;;;;;;9.30;8.30;;;;;;;30.74;49.28;96306.84;5083164;28;20067;-56
2021/09/10 10:29:59;;;;;;;11.40;7.90;;;;;;;30.69;46.69;96302.19;5083146;28;20067;-54
2021/09/10 10:32:36;;;;;;;11.57;8.30;;;;;;;30.01;49.96;96304.47;5092093;28;20060;-55
2021/09/10 10:35:30;;;;;;;10.75;8.27;;;;;;;30.05;49.59;96300.13;5087390;28;20063;-55
2021/09/10 10:38:05;;;;;;;12.57;9.02;;;;;;;28.65;52.34;96306.50;5068762;28;20079;-58
2021/09/10 10:40:37;;;;;;;10.82;8.40;;;;;;;30.21;49.12;96298.22;5084339;28;20113;-57
2021/09/10 10:43:11;;;;;;;12.23;7.60;;;;;;;30.32;49.36;96302.59;5086805;28;20072;-57
2021/09/10 10:46:08;;;;;;;9.35;7.70;;;;;;;30.42;49.93;96297.13;5090383;28;20796;-56
2021/09/10 10:48:52;;;;;;;13.45;8.48;;;;;;;30.56;48.27;96291.91;5083708;28;20074;-56
2021/09/10 10:51:50;;;;;;;10.80;7.85;;;;;;;30.63;50.46;96286.19;5076701;28;20071;-55
2021/09/10 10:54:28;;;;;;;9.32;8.13;;;;;;;30.32;48.45;96279.97;5077086;28;20515;-56
2021/09/10 10:56:58;;;;;;;8.77;7.63;;;;;;;30.21;49.34;96281.91;5090266;28;20170;-55
2021/09/10 10:59:45;;;;;;;13.93;8.50;;;;;;;30.33;47.04;96279.72;5089248;28;20587;-57
2021/09/10 11:02:28;;;;;;;10.25;7.50;;;;;;;30.84;48.86;96278.78;5078457;28;20079;-56
2021/09/10 11:05:01;;;;;;;11.63;8.43;;;;;;;29.96;51.63;96280.00;5084426;28;20071;-56
2021/09/10 11:07:31;;;;;;;13.80;8.95;;;;;;;30.23;48.86;96277.00;5087655;28;20545;-57
2021/09/10 11:10:01;;;;;;;10.77;7.80;;;;;;;29.82;53.02;96276.19;5094782;28;20083;-53
2021/09/10 11:12:29;;;;;;;11.52;8.75;;;;;;;29.66;50.37;96269.91;5080480;28;20475;-54
2021/09/10 11:15:00;;;;;;;10.20;8.70;;;;;;;30.14;48.71;96267.72;5090737;28;20064;-52
2021/09/10 11:17:28;;;;;;;8.90;7.68;;;;;;;30.29;50.31;96266.94;5082670;28;20079;-57
2021/09/10 11:19:58;;;;;;;13.20;7.57;;;;;;;30.69;47.74;96263.28;5086434;28;20071;-57
2021/09/10 11:22:49;;;;;;;9.27;8.13;;;;;;;30.50;48.30;96265.81;5095802;28;20050;-57
2021/09/10 11:25:17;;;;;;;10.00;8.57;;;;;;;30.15;47.69;96266.66;5082399;28;20087;-49
2021/09/10 11:27:45;;;;;;;11.57;8.77;;;;;;;30.30;46.35;96263.13;5074922;28;20251;-57
2021/09/10 11:30:15;;;;;;;10.15;8.55;;;;;;;30.78;45.56;96264.38;5086769;28;20526;-55